sensor_id;sensor_type;location;lat;lon;timestamp;temperature;humidity
18906;DHT22;9585;51.018;4.282;2023-07-08T00:00:29;17.70;99.90
18906;DHT22;9585;51.018;4.282;2023-07-08T00:02:57;17.60;99.90
18906;DHT22;9585;51.018;4.282;2023-07-08T00:05:26;17.50;99.90
18906;DHT22;9585;51.018;4.282;2023-07-08T00:07:54;17.50;99.90
18906;DHT22;9585;51.018;4.282;2023-07-08T00:10:25;17.50;99.90
18906;DHT22;9585;51.018;4.282;2023-07-08T00:12:56;17.40;99.90
18906;DHT22;9585;51.018;4.282;2023-07-08T00:15:26;17.40;99.90
18906;DHT22;9585;51.018;4.282;2023-07-08T00:17:56;17.40;99.90
18906;DHT22;9585;51.018;4.282;2023-07-08T00:20:38;17.30;99.90
18906;DHT22;9585;51.018;4.282;2023-07-08T00:23:08;17.30;99.90
18906;DHT22;9585;51.018;4.282;2023-07-08T00:25:39;17.30;99.90
18906;DHT22;9585;51.018;4.282;2023-07-08T00:28:09;17.20;99.90
18906;DHT22;9585;51.018;4.282;2023-07-08T00:30:37;17.20;99.90
18906;DHT22;9585;51.018;4.282;2023-07-08T00:33:06;17.10;99.90
18906;DHT22;9585;51.018;4.282;2023-07-08T00:35:36;17.10;99.90
18906;DHT22;9585;51.018;4.282;2023-07-08T00:38:12;17.10;99.90
18906;DHT22;9585;51.018;4.282;2023-07-08T00:40:52;17.00;99.90
18906;DHT22;9585;51.018;4.282;2023-07-08T00:43:27;16.90;99.90
18906;DHT22;9585;51.018;4.282;2023-07-08T00:48:51;16.80;99.90
18906;DHT22;9585;51.018;4.282;2023-07-08T00:51:20;16.80;99.90
18906;DHT22;9585;51.018;4.282;2023-07-08T00:53:49;16.80;99.90
18906;DHT22;9585;51.018;4.282;2023-07-08T00:56:22;16.70;99.90
18906;DHT22;9585;51.018;4.282;2023-07-08T00:58:56;16.60;99.90
18906;DHT22;9585;51.018;4.282;2023-07-08T01:01:26;16.60;99.90
18906;DHT22;9585;51.018;4.282;2023-07-08T01:03:59;16.60;99.90
18906;DHT22;9585;51.018;4.282;2023-07-08T01:06:30;16.60;99.90
18906;DHT22;9585;51.018;4.282;2023-07-08T01:09:01;16.50;99.90
18906;DHT22;9585;51.018;4.282;2023-07-08T01:11:33;16.40;99.90
18906;DHT22;9585;51.018;4.282;2023-07-08T01:14:02;16.40;99.90
18906;DHT22;9585;51.018;4.282;2023-07-08T01:16:33;16.30;99.90
18906;DHT22;9585;51.018;4.282;2023-07-08T01:19:01;16.30;99.90
18906;DHT22;9585;51.018;4.282;2023-07-08T01:21:33;16.30;99.90
18906;DHT22;9585;51.018;4.282;2023-07-08T01:24:04;16.30;99.90
18906;DHT22;9585;51.018;4.282;2023-07-08T01:26:35;16.20;99.90
18906;DHT22;9585;51.018;4.282;2023-07-08T01:29:04;16.10;99.90
18906;DHT22;9585;51.018;4.282;2023-07-08T01:31:33;16.00;99.90
18906;DHT22;9585;51.018;4.282;2023-07-08T01:34:02;16.00;99.90
18906;DHT22;9585;51.018;4.282;2023-07-08T01:36:33;16.00;99.90
18906;DHT22;9585;51.018;4.282;2023-07-08T01:39:02;16.00;99.90
18906;DHT22;9585;51.018;4.282;2023-07-08T01:41:30;16.00;99.90
18906;DHT22;9585;51.018;4.282;2023-07-08T01:43:58;15.90;99.90
18906;DHT22;9585;51.018;4.282;2023-07-08T01:46:26;15.90;99.90
18906;DHT22;9585;51.018;4.282;2023-07-08T01:48:57;15.90;99.90
18906;DHT22;9585;51.018;4.282;2023-07-08T01:51:26;15.90;99.90
18906;DHT22;9585;51.018;4.282;2023-07-08T01:53:54;15.90;99.90
18906;DHT22;9585;51.018;4.282;2023-07-08T01:56:23;15.90;99.90
18906;DHT22;9585;51.018;4.282;2023-07-08T01:58:51;15.80;99.90
18906;DHT22;9585;51.018;4.282;2023-07-08T02:01:18;15.80;99.90
18906;DHT22;9585;51.018;4.282;2023-07-08T02:03:46;15.70;99.90
18906;DHT22;9585;51.018;4.282;2023-07-08T02:06:14;15.80;99.90
18906;DHT22;9585;51.018;4.282;2023-07-08T02:08:42;15.70;99.90
18906;DHT22;9585;51.018;4.282;2023-07-08T02:11:10;15.70;99.90
18906;DHT22;9585;51.018;4.282;2023-07-08T02:13:40;15.70;99.90
18906;DHT22;9585;51.018;4.282;2023-07-08T02:16:08;15.70;99.90
18906;DHT22;9585;51.018;4.282;2023-07-08T02:18:36;15.60;99.90
18906;DHT22;9585;51.018;4.282;2023-07-08T02:21:05;15.60;99.90
18906;DHT22;9585;51.018;4.282;2023-07-08T02:23:34;15.60;99.90
18906;DHT22;9585;51.018;4.282;2023-07-08T02:26:02;15.50;99.90
18906;DHT22;9585;51.018;4.282;2023-07-08T02:28:30;15.50;99.90
18906;DHT22;9585;51.018;4.282;2023-07-08T02:31:03;15.50;99.90
18906;DHT22;9585;51.018;4.282;2023-07-08T02:33:31;15.50;99.90
18906;DHT22;9585;51.018;4.282;2023-07-08T02:36:00;15.50;99.90
18906;DHT22;9585;51.018;4.282;2023-07-08T02:38:28;15.50;99.90
18906;DHT22;9585;51.018;4.282;2023-07-08T02:40:56;15.50;99.90
18906;DHT22;9585;51.018;4.282;2023-07-08T02:43:25;15.50;99.90
18906;DHT22;9585;51.018;4.282;2023-07-08T02:45:53;15.40;99.90
18906;DHT22;9585;51.018;4.282;2023-07-08T02:48:22;15.40;99.90
18906;DHT22;9585;51.018;4.282;2023-07-08T02:50:50;15.40;99.90
18906;DHT22;9585;51.018;4.282;2023-07-08T02:53:19;15.40;99.90
18906;DHT22;9585;51.018;4.282;2023-07-08T02:55:49;15.40;99.90
18906;DHT22;9585;51.018;4.282;2023-07-08T02:58:17;15.40;99.90
18906;DHT22;9585;51.018;4.282;2023-07-08T03:00:45;15.30;99.90
18906;DHT22;9585;51.018;4.282;2023-07-08T03:03:12;15.40;99.90
18906;DHT22;9585;51.018;4.282;2023-07-08T03:05:54;15.30;99.90
18906;DHT22;9585;51.018;4.282;2023-07-08T03:08:22;15.30;99.90
18906;DHT22;9585;51.018;4.282;2023-07-08T03:10:55;15.20;99.90
18906;DHT22;9585;51.018;4.282;2023-07-08T03:13:23;15.10;99.90
18906;DHT22;9585;51.018;4.282;2023-07-08T03:15:52;15.10;99.90
18906;DHT22;9585;51.018;4.282;2023-07-08T03:18:21;15.10;99.90
18906;DHT22;9585;51.018;4.282;2023-07-08T03:20:51;15.10;99.90
18906;DHT22;9585;51.018;4.282;2023-07-08T03:23:18;15.10;99.90
18906;DHT22;9585;51.018;4.282;2023-07-08T03:25:46;15.10;99.90
18906;DHT22;9585;51.018;4.282;2023-07-08T03:28:14;15.10;99.90
18906;DHT22;9585;51.018;4.282;2023-07-08T03:30:43;15.10;99.90
18906;DHT22;9585;51.018;4.282;2023-07-08T03:33:12;15.10;99.90
18906;DHT22;9585;51.018;4.282;2023-07-08T03:35:40;15.00;99.90
18906;DHT22;9585;51.018;4.282;2023-07-08T03:38:10;15.00;99.90
18906;DHT22;9585;51.018;4.282;2023-07-08T03:40:41;15.00;99.90
18906;DHT22;9585;51.018;4.282;2023-07-08T03:43:10;15.00;99.90
18906;DHT22;9585;51.018;4.282;2023-07-08T03:45:38;14.90;99.90
18906;DHT22;9585;51.018;4.282;2023-07-08T03:48:07;14.90;99.90
18906;DHT22;9585;51.018;4.282;2023-07-08T03:50:36;14.90;99.90
18906;DHT22;9585;51.018;4.282;2023-07-08T03:53:03;14.90;99.90
18906;DHT22;9585;51.018;4.282;2023-07-08T03:55:33;14.90;99.90
18906;DHT22;9585;51.018;4.282;2023-07-08T03:58:00;14.80;99.90
18906;DHT22;9585;51.018;4.282;2023-07-08T04:00:28;14.70;99.90
18906;DHT22;9585;51.018;4.282;2023-07-08T04:02:55;14.70;99.90
18906;DHT22;9585;51.018;4.282;2023-07-08T04:05:23;14.80;99.90
18906;DHT22;9585;51.018;4.282;2023-07-08T04:07:51;14.80;99.90
18906;DHT22;9585;51.018;4.282;2023-07-08T04:10:18;14.80;99.90
18906;DHT22;9585;51.018;4.282;2023-07-08T04:12:48;14.80;99.90
18906;DHT22;9585;51.018;4.282;2023-07-08T04:15:16;14.80;99.90
18906;DHT22;9585;51.018;4.282;2023-07-08T04:17:47;14.80;99.90
18906;DHT22;9585;51.018;4.282;2023-07-08T04:20:18;14.70;99.90
18906;DHT22;9585;51.018;4.282;2023-07-08T04:22:46;14.60;99.90
18906;DHT22;9585;51.018;4.282;2023-07-08T04:25:14;14.70;99.90
18906;DHT22;9585;51.018;4.282;2023-07-08T04:27:44;14.80;99.90
18906;DHT22;9585;51.018;4.282;2023-07-08T04:30:20;14.80;99.90
18906;DHT22;9585;51.018;4.282;2023-07-08T04:32:51;14.90;99.90
18906;DHT22;9585;51.018;4.282;2023-07-08T04:35:19;15.00;99.90
18906;DHT22;9585;51.018;4.282;2023-07-08T04:37:46;15.10;99.90
18906;DHT22;9585;51.018;4.282;2023-07-08T04:40:19;15.20;99.90
18906;DHT22;9585;51.018;4.282;2023-07-08T04:42:48;15.20;99.90
18906;DHT22;9585;51.018;4.282;2023-07-08T04:45:18;15.30;99.90
18906;DHT22;9585;51.018;4.282;2023-07-08T04:47:46;15.40;99.90
18906;DHT22;9585;51.018;4.282;2023-07-08T04:50:18;15.60;99.90
18906;DHT22;9585;51.018;4.282;2023-07-08T04:52:46;15.90;99.90
18906;DHT22;9585;51.018;4.282;2023-07-08T04:55:15;16.20;99.90
18906;DHT22;9585;51.018;4.282;2023-07-08T04:57:42;16.40;99.90
18906;DHT22;9585;51.018;4.282;2023-07-08T05:00:14;16.60;99.90
18906;DHT22;9585;51.018;4.282;2023-07-08T05:02:44;16.80;99.90
18906;DHT22;9585;51.018;4.282;2023-07-08T05:05:12;16.90;99.90
18906;DHT22;9585;51.018;4.282;2023-07-08T05:07:39;17.10;99.90
18906;DHT22;9585;51.018;4.282;2023-07-08T05:10:08;17.20;99.90
18906;DHT22;9585;51.018;4.282;2023-07-08T05:12:35;17.20;99.90
18906;DHT22;9585;51.018;4.282;2023-07-08T05:15:04;17.30;99.90
18906;DHT22;9585;51.018;4.282;2023-07-08T05:17:33;17.40;99.90
18906;DHT22;9585;51.018;4.282;2023-07-08T05:20:06;17.50;99.90
18906;DHT22;9585;51.018;4.282;2023-07-08T05:22:34;17.70;99.90
18906;DHT22;9585;51.018;4.282;2023-07-08T05:25:02;17.70;99.90
18906;DHT22;9585;51.018;4.282;2023-07-08T05:27:31;17.90;99.90
18906;DHT22;9585;51.018;4.282;2023-07-08T05:30:00;18.50;99.90
18906;DHT22;9585;51.018;4.282;2023-07-08T05:32:28;19.30;99.90
18906;DHT22;9585;51.018;4.282;2023-07-08T05:34:55;19.80;99.90
18906;DHT22;9585;51.018;4.282;2023-07-08T05:37:25;20.30;99.90
18906;DHT22;9585;51.018;4.282;2023-07-08T05:39:54;20.60;99.90
18906;DHT22;9585;51.018;4.282;2023-07-08T05:42:23;20.90;99.90
18906;DHT22;9585;51.018;4.282;2023-07-08T05:44:52;21.80;99.90
18906;DHT22;9585;51.018;4.282;2023-07-08T05:47:20;22.70;99.90
18906;DHT22;9585;51.018;4.282;2023-07-08T05:49:48;23.60;99.90
18906;DHT22;9585;51.018;4.282;2023-07-08T05:52:16;24.20;99.90
18906;DHT22;9585;51.018;4.282;2023-07-08T05:54:45;24.40;99.90
18906;DHT22;9585;51.018;4.282;2023-07-08T05:57:13;24.30;99.90
18906;DHT22;9585;51.018;4.282;2023-07-08T05:59:40;24.70;99.90
18906;DHT22;9585;51.018;4.282;2023-07-08T06:02:11;25.10;99.90
18906;DHT22;9585;51.018;4.282;2023-07-08T06:04:39;24.80;99.90
18906;DHT22;9585;51.018;4.282;2023-07-08T06:07:07;24.50;99.90
18906;DHT22;9585;51.018;4.282;2023-07-08T06:09:35;25.20;99.90
18906;DHT22;9585;51.018;4.282;2023-07-08T06:12:04;26.60;99.90
18906;DHT22;9585;51.018;4.282;2023-07-08T06:14:32;28.10;99.90
18906;DHT22;9585;51.018;4.282;2023-07-08T06:17:00;29.10;99.90
18906;DHT22;9585;51.018;4.282;2023-07-08T06:19:28;29.00;99.90
18906;DHT22;9585;51.018;4.282;2023-07-08T06:21:55;29.00;99.90
18906;DHT22;9585;51.018;4.282;2023-07-08T06:24:23;28.70;99.90
18906;DHT22;9585;51.018;4.282;2023-07-08T06:26:51;29.40;99.90
18906;DHT22;9585;51.018;4.282;2023-07-08T06:29:20;30.60;99.90
18906;DHT22;9585;51.018;4.282;2023-07-08T06:31:48;31.20;99.90
18906;DHT22;9585;51.018;4.282;2023-07-08T06:34:17;30.70;99.90
18906;DHT22;9585;51.018;4.282;2023-07-08T06:36:45;30.20;99.90
18906;DHT22;9585;51.018;4.282;2023-07-08T06:39:12;30.30;99.90
18906;DHT22;9585;51.018;4.282;2023-07-08T06:41:40;29.80;99.90
18906;DHT22;9585;51.018;4.282;2023-07-08T06:44:08;30.50;99.90
18906;DHT22;9585;51.018;4.282;2023-07-08T06:46:38;29.60;99.90
18906;DHT22;9585;51.018;4.282;2023-07-08T06:49:08;30.20;99.90
18906;DHT22;9585;51.018;4.282;2023-07-08T06:51:40;30.10;99.90
18906;DHT22;9585;51.018;4.282;2023-07-08T06:54:09;30.40;99.90
18906;DHT22;9585;51.018;4.282;2023-07-08T06:56:38;30.40;99.90
18906;DHT22;9585;51.018;4.282;2023-07-08T06:59:06;31.50;99.90
18906;DHT22;9585;51.018;4.282;2023-07-08T07:01:34;32.20;99.90
18906;DHT22;9585;51.018;4.282;2023-07-08T07:04:04;32.60;99.90
18906;DHT22;9585;51.018;4.282;2023-07-08T07:06:32;33.00;99.90
18906;DHT22;9585;51.018;4.282;2023-07-08T07:09:01;33.50;99.90
18906;DHT22;9585;51.018;4.282;2023-07-08T07:11:29;34.10;99.90
18906;DHT22;9585;51.018;4.282;2023-07-08T07:13:57;34.20;99.90
18906;DHT22;9585;51.018;4.282;2023-07-08T07:16:25;33.10;99.90
18906;DHT22;9585;51.018;4.282;2023-07-08T07:18:52;32.50;99.90
18906;DHT22;9585;51.018;4.282;2023-07-08T07:21:22;32.80;99.90
18906;DHT22;9585;51.018;4.282;2023-07-08T07:23:50;33.50;99.90
18906;DHT22;9585;51.018;4.282;2023-07-08T07:26:18;34.50;99.90
18906;DHT22;9585;51.018;4.282;2023-07-08T07:28:46;35.10;99.90
18906;DHT22;9585;51.018;4.282;2023-07-08T07:31:14;34.70;99.90
18906;DHT22;9585;51.018;4.282;2023-07-08T07:33:41;34.30;99.90
18906;DHT22;9585;51.018;4.282;2023-07-08T07:36:09;33.60;99.90
18906;DHT22;9585;51.018;4.282;2023-07-08T07:38:38;34.10;99.90
18906;DHT22;9585;51.018;4.282;2023-07-08T07:41:05;33.10;99.90
18906;DHT22;9585;51.018;4.282;2023-07-08T07:43:36;32.80;99.90
18906;DHT22;9585;51.018;4.282;2023-07-08T07:46:05;32.70;99.90
18906;DHT22;9585;51.018;4.282;2023-07-08T07:48:34;31.60;99.90
18906;DHT22;9585;51.018;4.282;2023-07-08T07:51:01;32.40;99.90
18906;DHT22;9585;51.018;4.282;2023-07-08T07:53:29;33.20;99.90
18906;DHT22;9585;51.018;4.282;2023-07-08T07:56:00;32.40;99.90
18906;DHT22;9585;51.018;4.282;2023-07-08T07:58:30;34.00;99.90
18906;DHT22;9585;51.018;4.282;2023-07-08T08:00:58;33.40;99.90
18906;DHT22;9585;51.018;4.282;2023-07-08T08:03:27;33.90;99.90
18906;DHT22;9585;51.018;4.282;2023-07-08T08:05:55;34.30;99.90
18906;DHT22;9585;51.018;4.282;2023-07-08T08:08:22;34.60;99.90
18906;DHT22;9585;51.018;4.282;2023-07-08T08:10:50;34.80;99.90
18906;DHT22;9585;51.018;4.282;2023-07-08T08:13:19;35.00;99.90
18906;DHT22;9585;51.018;4.282;2023-07-08T08:15:47;35.40;99.90
18906;DHT22;9585;51.018;4.282;2023-07-08T08:18:15;35.80;99.90
18906;DHT22;9585;51.018;4.282;2023-07-08T08:20:42;36.20;99.90
18906;DHT22;9585;51.018;4.282;2023-07-08T08:23:10;35.40;99.30
18906;DHT22;9585;51.018;4.282;2023-07-08T08:25:38;36.30;99.50
18906;DHT22;9585;51.018;4.282;2023-07-08T08:28:08;36.80;98.80
18906;DHT22;9585;51.018;4.282;2023-07-08T08:30:38;37.00;98.20
18906;DHT22;9585;51.018;4.282;2023-07-08T08:33:06;36.90;98.00
18906;DHT22;9585;51.018;4.282;2023-07-08T08:35:34;36.30;98.90
18906;DHT22;9585;51.018;4.282;2023-07-08T08:38:03;35.70;98.00
18906;DHT22;9585;51.018;4.282;2023-07-08T08:40:31;35.60;98.00
18906;DHT22;9585;51.018;4.282;2023-07-08T08:43:02;35.90;97.70
18906;DHT22;9585;51.018;4.282;2023-07-08T08:45:36;35.30;99.00
18906;DHT22;9585;51.018;4.282;2023-07-08T08:48:11;35.60;98.70
18906;DHT22;9585;51.018;4.282;2023-07-08T08:50:44;36.10;99.30
18906;DHT22;9585;51.018;4.282;2023-07-08T08:53:16;36.40;99.00
18906;DHT22;9585;51.018;4.282;2023-07-08T08:55:46;36.30;97.90
18906;DHT22;9585;51.018;4.282;2023-07-08T08:58:32;36.10;97.70
18906;DHT22;9585;51.018;4.282;2023-07-08T09:01:02;36.30;97.20
18906;DHT22;9585;51.018;4.282;2023-07-08T09:03:38;36.30;97.60
18906;DHT22;9585;51.018;4.282;2023-07-08T09:06:14;36.60;97.00
18906;DHT22;9585;51.018;4.282;2023-07-08T09:08:42;36.50;97.10
18906;DHT22;9585;51.018;4.282;2023-07-08T09:11:20;35.10;97.40
18906;DHT22;9585;51.018;4.282;2023-07-08T09:13:51;34.70;97.70
18906;DHT22;9585;51.018;4.282;2023-07-08T09:16:26;34.30;99.70
18906;DHT22;9585;51.018;4.282;2023-07-08T09:19:00;34.40;99.40
18906;DHT22;9585;51.018;4.282;2023-07-08T09:21:31;34.70;99.20
18906;DHT22;9585;51.018;4.282;2023-07-08T09:24:07;34.40;99.80
18906;DHT22;9585;51.018;4.282;2023-07-08T09:26:36;34.10;99.90
18906;DHT22;9585;51.018;4.282;2023-07-08T09:29:09;33.90;99.90
18906;DHT22;9585;51.018;4.282;2023-07-08T09:31:39;33.90;99.90
18906;DHT22;9585;51.018;4.282;2023-07-08T09:34:12;34.00;99.90
18906;DHT22;9585;51.018;4.282;2023-07-08T09:36:42;33.50;99.90
18906;DHT22;9585;51.018;4.282;2023-07-08T09:39:11;33.10;99.90
18906;DHT22;9585;51.018;4.282;2023-07-08T09:41:41;32.90;99.90
18906;DHT22;9585;51.018;4.282;2023-07-08T09:44:22;32.80;99.70
18906;DHT22;9585;51.018;4.282;2023-07-08T09:46:52;32.70;98.90
18906;DHT22;9585;51.018;4.282;2023-07-08T09:49:23;32.20;97.90
18906;DHT22;9585;51.018;4.282;2023-07-08T09:51:52;32.20;98.20
18906;DHT22;9585;51.018;4.282;2023-07-08T09:54:22;32.30;98.80
18906;DHT22;9585;51.018;4.282;2023-07-08T09:56:58;32.10;99.30
18906;DHT22;9585;51.018;4.282;2023-07-08T09:59:32;31.90;98.60
18906;DHT22;9585;51.018;4.282;2023-07-08T10:02:25;32.00;98.90
18906;DHT22;9585;51.018;4.282;2023-07-08T10:04:59;32.00;99.80
18906;DHT22;9585;51.018;4.282;2023-07-08T10:07:30;31.70;99.60
18906;DHT22;9585;51.018;4.282;2023-07-08T10:10:01;31.50;98.60
18906;DHT22;9585;51.018;4.282;2023-07-08T10:12:31;31.50;98.10
18906;DHT22;9585;51.018;4.282;2023-07-08T10:15:05;31.60;96.60
18906;DHT22;9585;51.018;4.282;2023-07-08T10:17:37;31.30;97.60
18906;DHT22;9585;51.018;4.282;2023-07-08T10:20:13;31.30;99.40
18906;DHT22;9585;51.018;4.282;2023-07-08T10:22:54;31.60;99.40
18906;DHT22;9585;51.018;4.282;2023-07-08T10:25:28;31.90;99.70
18906;DHT22;9585;51.018;4.282;2023-07-08T10:28:06;31.80;99.70
18906;DHT22;9585;51.018;4.282;2023-07-08T10:30:44;31.60;99.50
18906;DHT22;9585;51.018;4.282;2023-07-08T10:33:50;31.30;99.90
18906;DHT22;9585;51.018;4.282;2023-07-08T10:36:25;31.20;99.90
18906;DHT22;9585;51.018;4.282;2023-07-08T10:39:12;31.30;98.40
18906;DHT22;9585;51.018;4.282;2023-07-08T10:41:49;31.50;99.40
18906;DHT22;9585;51.018;4.282;2023-07-08T10:44:26;31.70;98.30
18906;DHT22;9585;51.018;4.282;2023-07-08T10:47:03;32.00;98.80
18906;DHT22;9585;51.018;4.282;2023-07-08T10:49:49;31.80;99.30
18906;DHT22;9585;51.018;4.282;2023-07-08T10:55:26;31.90;99.30
18906;DHT22;9585;51.018;4.282;2023-07-08T10:58:16;31.70;99.20
18906;DHT22;9585;51.018;4.282;2023-07-08T11:01:05;31.70;98.60
18906;DHT22;9585;51.018;4.282;2023-07-08T11:03:53;31.70;97.40
18906;DHT22;9585;51.018;4.282;2023-07-08T11:06:43;31.70;99.10
18906;DHT22;9585;51.018;4.282;2023-07-08T11:09:17;31.60;97.90
18906;DHT22;9585;51.018;4.282;2023-07-08T11:11:53;31.20;98.50
18906;DHT22;9585;51.018;4.282;2023-07-08T11:14:25;31.30;99.90
18906;DHT22;9585;51.018;4.282;2023-07-08T11:17:08;31.20;99.20
18906;DHT22;9585;51.018;4.282;2023-07-08T11:19:53;31.00;97.60
18906;DHT22;9585;51.018;4.282;2023-07-08T11:22:22;30.70;99.90
18906;DHT22;9585;51.018;4.282;2023-07-08T11:24:54;30.50;99.40
18906;DHT22;9585;51.018;4.282;2023-07-08T11:27:30;30.90;99.90
18906;DHT22;9585;51.018;4.282;2023-07-08T11:30:11;31.20;99.90
18906;DHT22;9585;51.018;4.282;2023-07-08T11:32:42;31.60;99.00
18906;DHT22;9585;51.018;4.282;2023-07-08T11:35:17;31.80;98.80
18906;DHT22;9585;51.018;4.282;2023-07-08T11:37:50;31.70;98.50
18906;DHT22;9585;51.018;4.282;2023-07-08T11:40:22;32.00;97.90
18906;DHT22;9585;51.018;4.282;2023-07-08T11:43:00;32.00;97.70
18906;DHT22;9585;51.018;4.282;2023-07-08T11:45:33;32.10;98.00
18906;DHT22;9585;51.018;4.282;2023-07-08T11:48:09;31.90;98.50
18906;DHT22;9585;51.018;4.282;2023-07-08T11:50:41;31.90;98.30
18906;DHT22;9585;51.018;4.282;2023-07-08T11:53:11;31.90;97.90
18906;DHT22;9585;51.018;4.282;2023-07-08T11:55:44;31.80;97.20
18906;DHT22;9585;51.018;4.282;2023-07-08T11:58:20;32.00;98.30
18906;DHT22;9585;51.018;4.282;2023-07-08T12:00:54;32.30;98.10
18906;DHT22;9585;51.018;4.282;2023-07-08T12:03:32;32.30;98.60
18906;DHT22;9585;51.018;4.282;2023-07-08T12:06:01;32.00;97.70
18906;DHT22;9585;51.018;4.282;2023-07-08T12:08:35;31.70;97.30
18906;DHT22;9585;51.018;4.282;2023-07-08T12:11:03;31.70;97.10
18906;DHT22;9585;51.018;4.282;2023-07-08T12:13:38;31.60;97.40
18906;DHT22;9585;51.018;4.282;2023-07-08T12:16:09;31.90;98.20
18906;DHT22;9585;51.018;4.282;2023-07-08T12:18:39;32.00;97.50
18906;DHT22;9585;51.018;4.282;2023-07-08T12:21:12;32.10;97.70
18906;DHT22;9585;51.018;4.282;2023-07-08T12:23:44;32.40;98.10
18906;DHT22;9585;51.018;4.282;2023-07-08T12:26:13;32.60;99.00
18906;DHT22;9585;51.018;4.282;2023-07-08T12:28:43;32.30;96.60
18906;DHT22;9585;51.018;4.282;2023-07-08T12:31:14;32.00;97.30
18906;DHT22;9585;51.018;4.282;2023-07-08T12:33:43;32.00;98.20
18906;DHT22;9585;51.018;4.282;2023-07-08T12:36:16;32.00;98.30
18906;DHT22;9585;51.018;4.282;2023-07-08T12:38:49;32.20;98.20
18906;DHT22;9585;51.018;4.282;2023-07-08T12:41:22;32.10;97.50
18906;DHT22;9585;51.018;4.282;2023-07-08T12:43:52;32.10;97.20
18906;DHT22;9585;51.018;4.282;2023-07-08T12:46:21;32.20;97.80
18906;DHT22;9585;51.018;4.282;2023-07-08T12:48:49;31.90;98.50
18906;DHT22;9585;51.018;4.282;2023-07-08T12:51:18;32.10;98.30
18906;DHT22;9585;51.018;4.282;2023-07-08T12:53:48;32.30;98.10
18906;DHT22;9585;51.018;4.282;2023-07-08T12:56:17;32.40;98.60
18906;DHT22;9585;51.018;4.282;2023-07-08T12:58:49;32.20;98.90
18906;DHT22;9585;51.018;4.282;2023-07-08T13:01:31;32.10;99.20
18906;DHT22;9585;51.018;4.282;2023-07-08T13:04:06;31.90;98.00
18906;DHT22;9585;51.018;4.282;2023-07-08T13:06:38;31.90;98.80
18906;DHT22;9585;51.018;4.282;2023-07-08T13:09:32;32.20;99.90
18906;DHT22;9585;51.018;4.282;2023-07-08T13:12:05;32.20;98.40
18906;DHT22;9585;51.018;4.282;2023-07-08T13:14:42;31.90;99.30
18906;DHT22;9585;51.018;4.282;2023-07-08T13:17:14;31.70;98.50
18906;DHT22;9585;51.018;4.282;2023-07-08T13:19:44;31.40;99.70
18906;DHT22;9585;51.018;4.282;2023-07-08T13:22:28;31.60;99.40
18906;DHT22;9585;51.018;4.282;2023-07-08T13:25:01;31.90;99.90
18906;DHT22;9585;51.018;4.282;2023-07-08T13:27:28;31.90;98.40
18906;DHT22;9585;51.018;4.282;2023-07-08T13:30:14;31.80;99.90
18906;DHT22;9585;51.018;4.282;2023-07-08T13:32:48;31.30;99.90
18906;DHT22;9585;51.018;4.282;2023-07-08T13:35:24;30.60;99.90
18906;DHT22;9585;51.018;4.282;2023-07-08T13:37:55;30.10;99.90
18906;DHT22;9585;51.018;4.282;2023-07-08T13:40:27;29.40;99.90
18906;DHT22;9585;51.018;4.282;2023-07-08T13:43:01;28.90;99.90
18906;DHT22;9585;51.018;4.282;2023-07-08T13:45:32;28.50;99.90
18906;DHT22;9585;51.018;4.282;2023-07-08T13:48:11;28.40;99.90
18906;DHT22;9585;51.018;4.282;2023-07-08T13:50:45;28.30;99.90
18906;DHT22;9585;51.018;4.282;2023-07-08T13:53:22;28.00;99.90
18906;DHT22;9585;51.018;4.282;2023-07-08T13:55:59;27.60;99.90
18906;DHT22;9585;51.018;4.282;2023-07-08T13:58:29;27.50;99.90
18906;DHT22;9585;51.018;4.282;2023-07-08T14:00:58;27.50;99.90
18906;DHT22;9585;51.018;4.282;2023-07-08T14:03:30;27.40;99.90
18906;DHT22;9585;51.018;4.282;2023-07-08T14:05:58;27.20;99.90
18906;DHT22;9585;51.018;4.282;2023-07-08T14:08:26;27.30;99.90
18906;DHT22;9585;51.018;4.282;2023-07-08T14:10:53;26.90;99.90
18906;DHT22;9585;51.018;4.282;2023-07-08T14:13:21;26.60;99.90
18906;DHT22;9585;51.018;4.282;2023-07-08T14:15:49;26.20;99.90
18906;DHT22;9585;51.018;4.282;2023-07-08T14:18:17;26.30;99.90
18906;DHT22;9585;51.018;4.282;2023-07-08T14:20:46;27.00;99.90
18906;DHT22;9585;51.018;4.282;2023-07-08T14:23:14;27.60;99.90
18906;DHT22;9585;51.018;4.282;2023-07-08T14:25:42;27.90;99.90
18906;DHT22;9585;51.018;4.282;2023-07-08T14:28:09;27.80;99.90
18906;DHT22;9585;51.018;4.282;2023-07-08T14:30:42;27.70;99.90
18906;DHT22;9585;51.018;4.282;2023-07-08T14:33:12;27.60;99.90
18906;DHT22;9585;51.018;4.282;2023-07-08T14:35:40;27.80;99.90
18906;DHT22;9585;51.018;4.282;2023-07-08T14:38:12;28.00;99.90
18906;DHT22;9585;51.018;4.282;2023-07-08T14:40:41;28.20;99.90
18906;DHT22;9585;51.018;4.282;2023-07-08T14:43:15;28.40;99.90
18906;DHT22;9585;51.018;4.282;2023-07-08T14:45:46;28.70;99.90
18906;DHT22;9585;51.018;4.282;2023-07-08T14:48:15;29.20;99.90
18906;DHT22;9585;51.018;4.282;2023-07-08T14:50:42;29.60;99.90
18906;DHT22;9585;51.018;4.282;2023-07-08T14:53:13;29.90;99.90
18906;DHT22;9585;51.018;4.282;2023-07-08T14:55:42;30.00;99.90
18906;DHT22;9585;51.018;4.282;2023-07-08T14:58:19;30.20;99.90
18906;DHT22;9585;51.018;4.282;2023-07-08T15:00:49;30.30;99.90
18906;DHT22;9585;51.018;4.282;2023-07-08T15:03:17;30.40;99.90
18906;DHT22;9585;51.018;4.282;2023-07-08T15:05:45;30.60;99.90
18906;DHT22;9585;51.018;4.282;2023-07-08T15:08:15;30.80;99.90
18906;DHT22;9585;51.018;4.282;2023-07-08T15:10:46;30.90;99.90
18906;DHT22;9585;51.018;4.282;2023-07-08T15:13:15;31.10;99.90
18906;DHT22;9585;51.018;4.282;2023-07-08T15:15:45;31.10;99.90
18906;DHT22;9585;51.018;4.282;2023-07-08T15:18:14;31.10;99.90
18906;DHT22;9585;51.018;4.282;2023-07-08T15:20:43;31.10;99.90
18906;DHT22;9585;51.018;4.282;2023-07-08T15:23:11;31.10;99.90
18906;DHT22;9585;51.018;4.282;2023-07-08T15:25:41;31.10;99.90
18906;DHT22;9585;51.018;4.282;2023-07-08T15:28:16;30.90;99.90
18906;DHT22;9585;51.018;4.282;2023-07-08T15:30:44;30.80;99.90
18906;DHT22;9585;51.018;4.282;2023-07-08T15:33:13;30.80;99.90
18906;DHT22;9585;51.018;4.282;2023-07-08T15:35:42;30.80;99.90
18906;DHT22;9585;51.018;4.282;2023-07-08T15:38:11;30.80;99.90
18906;DHT22;9585;51.018;4.282;2023-07-08T15:40:40;30.60;99.90
18906;DHT22;9585;51.018;4.282;2023-07-08T15:43:13;30.60;99.90
18906;DHT22;9585;51.018;4.282;2023-07-08T15:45:42;30.40;99.90
18906;DHT22;9585;51.018;4.282;2023-07-08T15:48:13;30.40;99.90
18906;DHT22;9585;51.018;4.282;2023-07-08T15:50:44;30.30;99.90
18906;DHT22;9585;51.018;4.282;2023-07-08T15:53:15;30.30;99.90
18906;DHT22;9585;51.018;4.282;2023-07-08T15:55:46;30.10;99.90
18906;DHT22;9585;51.018;4.282;2023-07-08T15:58:24;30.20;99.90
18906;DHT22;9585;51.018;4.282;2023-07-08T16:00:53;30.20;99.90
18906;DHT22;9585;51.018;4.282;2023-07-08T16:03:25;30.40;99.90
18906;DHT22;9585;51.018;4.282;2023-07-08T16:05:54;30.50;99.90
18906;DHT22;9585;51.018;4.282;2023-07-08T16:08:23;30.40;99.90
18906;DHT22;9585;51.018;4.282;2023-07-08T16:10:55;30.40;99.90
18906;DHT22;9585;51.018;4.282;2023-07-08T16:13:26;30.40;99.90